sensor_id;sensor_type;location;lat;lon;timestamp;temperature;humidity
52531;DHT22;38441;52.894;6.040;2023-06-24T00:01:28;19.20;99.90
52531;DHT22;38441;52.894;6.040;2023-06-24T00:03:54;19.20;99.90
52531;DHT22;38441;52.894;6.040;2023-06-24T00:06:20;18.90;99.90
52531;DHT22;38441;52.894;6.040;2023-06-24T00:08:48;19.00;99.90
52531;DHT22;38441;52.894;6.040;2023-06-24T00:11:14;19.30;99.90
52531;DHT22;38441;52.894;6.040;2023-06-24T00:13:41;19.90;99.90
52531;DHT22;38441;52.894;6.040;2023-06-24T00:16:06;19.60;99.90
52531;DHT22;38441;52.894;6.040;2023-06-24T00:18:33;19.90;99.90
52531;DHT22;38441;52.894;6.040;2023-06-24T00:20:59;19.90;99.90
52531;DHT22;38441;52.894;6.040;2023-06-24T00:23:27;18.30;99.90
52531;DHT22;38441;52.894;6.040;2023-06-24T00:25:54;17.50;99.90
52531;DHT22;38441;52.894;6.040;2023-06-24T00:28:20;19.40;99.90
52531;DHT22;38441;52.894;6.040;2023-06-24T00:30:47;18.60;99.90
52531;DHT22;38441;52.894;6.040;2023-06-24T00:33:13;18.90;99.90
52531;DHT22;38441;52.894;6.040;2023-06-24T00:35:42;19.40;99.90
52531;DHT22;38441;52.894;6.040;2023-06-24T00:38:08;19.60;99.90
52531;DHT22;38441;52.894;6.040;2023-06-24T00:40:34;18.90;99.90
52531;DHT22;38441;52.894;6.040;2023-06-24T00:43:00;16.60;99.90
52531;DHT22;38441;52.894;6.040;2023-06-24T00:45:27;19.30;99.90
52531;DHT22;38441;52.894;6.040;2023-06-24T00:47:55;17.70;99.90
52531;DHT22;38441;52.894;6.040;2023-06-24T00:50:21;18.80;99.90
52531;DHT22;38441;52.894;6.040;2023-06-24T00:52:48;18.70;99.90
52531;DHT22;38441;52.894;6.040;2023-06-24T00:55:16;18.60;99.90
52531;DHT22;38441;52.894;6.040;2023-06-24T00:57:43;19.20;99.90
52531;DHT22;38441;52.894;6.040;2023-06-24T01:00:13;18.60;99.90
52531;DHT22;38441;52.894;6.040;2023-06-24T01:02:41;17.50;99.90
52531;DHT22;38441;52.894;6.040;2023-06-24T01:05:08;18.60;99.90
52531;DHT22;38441;52.894;6.040;2023-06-24T01:07:37;17.30;99.90
52531;DHT22;38441;52.894;6.040;2023-06-24T01:10:04;18.10;99.90
52531;DHT22;38441;52.894;6.040;2023-06-24T01:12:33;17.40;99.90
52531;DHT22;38441;52.894;6.040;2023-06-24T01:14:59;15.70;99.90
52531;DHT22;38441;52.894;6.040;2023-06-24T01:17:42;18.00;99.90
52531;DHT22;38441;52.894;6.040;2023-06-24T01:20:23;17.30;99.90
52531;DHT22;38441;52.894;6.040;2023-06-24T01:26:42;17.00;99.90
52531;DHT22;38441;52.894;6.040;2023-06-24T01:32:12;16.90;99.90
52531;DHT22;38441;52.894;6.040;2023-06-24T01:34:55;19.30;99.90
52531;DHT22;38441;52.894;6.040;2023-06-24T01:37:37;18.50;99.90
52531;DHT22;38441;52.894;6.040;2023-06-24T01:40:12;18.00;99.90
52531;DHT22;38441;52.894;6.040;2023-06-24T01:42:44;17.40;99.90
52531;DHT22;38441;52.894;6.040;2023-06-24T01:45:14;18.00;99.90
52531;DHT22;38441;52.894;6.040;2023-06-24T01:47:43;17.20;99.90
52531;DHT22;38441;52.894;6.040;2023-06-24T01:50:11;15.60;99.90
52531;DHT22;38441;52.894;6.040;2023-06-24T01:52:39;18.10;99.90
52531;DHT22;38441;52.894;6.040;2023-06-24T01:55:08;18.40;99.90
52531;DHT22;38441;52.894;6.040;2023-06-24T01:57:36;17.90;99.90
52531;DHT22;38441;52.894;6.040;2023-06-24T02:00:03;18.00;99.90
52531;DHT22;38441;52.894;6.040;2023-06-24T02:02:33;16.80;99.90
52531;DHT22;38441;52.894;6.040;2023-06-24T02:05:01;17.40;99.90
52531;DHT22;38441;52.894;6.040;2023-06-24T02:07:28;18.40;99.90
52531;DHT22;38441;52.894;6.040;2023-06-24T02:09:55;18.30;99.90
52531;DHT22;38441;52.894;6.040;2023-06-24T02:12:23;18.00;99.90
52531;DHT22;38441;52.894;6.040;2023-06-24T02:14:50;16.70;99.90
52531;DHT22;38441;52.894;6.040;2023-06-24T02:17:17;18.90;99.90
52531;DHT22;38441;52.894;6.040;2023-06-24T02:19:44;17.70;99.90
52531;DHT22;38441;52.894;6.040;2023-06-24T02:22:11;17.60;99.90
52531;DHT22;38441;52.894;6.040;2023-06-24T02:24:38;17.80;99.90
52531;DHT22;38441;52.894;6.040;2023-06-24T02:27:07;17.50;99.90
52531;DHT22;38441;52.894;6.040;2023-06-24T02:29:34;18.00;99.90
52531;DHT22;38441;52.894;6.040;2023-06-24T02:32:00;16.30;99.90
52531;DHT22;38441;52.894;6.040;2023-06-24T02:34:26;15.20;99.90
52531;DHT22;38441;52.894;6.040;2023-06-24T02:36:52;17.60;99.90
52531;DHT22;38441;52.894;6.040;2023-06-24T02:39:18;17.60;99.90
52531;DHT22;38441;52.894;6.040;2023-06-24T02:41:45;15.40;99.90
52531;DHT22;38441;52.894;6.040;2023-06-24T02:44:13;17.70;99.90
52531;DHT22;38441;52.894;6.040;2023-06-24T02:46:40;17.50;99.90
52531;DHT22;38441;52.894;6.040;2023-06-24T02:49:07;18.30;99.90
52531;DHT22;38441;52.894;6.040;2023-06-24T02:51:35;16.80;99.90
52531;DHT22;38441;52.894;6.040;2023-06-24T02:54:02;17.60;99.90
52531;DHT22;38441;52.894;6.040;2023-06-24T02:56:28;15.90;99.90
52531;DHT22;38441;52.894;6.040;2023-06-24T02:58:54;16.70;99.90
52531;DHT22;38441;52.894;6.040;2023-06-24T03:01:20;16.90;99.90
52531;DHT22;38441;52.894;6.040;2023-06-24T03:03:54;17.30;99.90
52531;DHT22;38441;52.894;6.040;2023-06-24T03:06:21;16.00;99.90
52531;DHT22;38441;52.894;6.040;2023-06-24T03:08:48;16.80;99.90
52531;DHT22;38441;52.894;6.040;2023-06-24T03:11:15;16.80;99.90
52531;DHT22;38441;52.894;6.040;2023-06-24T03:13:41;17.00;99.90
52531;DHT22;38441;52.894;6.040;2023-06-24T03:16:06;17.00;99.90
52531;DHT22;38441;52.894;6.040;2023-06-24T03:18:39;15.50;99.90
52531;DHT22;38441;52.894;6.040;2023-06-24T03:21:04;18.00;99.90
52531;DHT22;38441;52.894;6.040;2023-06-24T03:23:32;16.30;99.90
52531;DHT22;38441;52.894;6.040;2023-06-24T03:25:58;16.90;99.90
52531;DHT22;38441;52.894;6.040;2023-06-24T03:28:24;17.70;99.90
52531;DHT22;38441;52.894;6.040;2023-06-24T03:30:49;16.60;99.90
52531;DHT22;38441;52.894;6.040;2023-06-24T03:33:15;17.60;99.90
52531;DHT22;38441;52.894;6.040;2023-06-24T03:35:42;14.70;99.90
52531;DHT22;38441;52.894;6.040;2023-06-24T03:38:08;16.80;99.90
52531;DHT22;38441;52.894;6.040;2023-06-24T03:40:34;16.60;99.90
52531;DHT22;38441;52.894;6.040;2023-06-24T03:42:59;17.20;99.90
52531;DHT22;38441;52.894;6.040;2023-06-24T03:45:25;15.90;99.90
52531;DHT22;38441;52.894;6.040;2023-06-24T03:47:51;15.00;99.90
52531;DHT22;38441;52.894;6.040;2023-06-24T03:50:16;17.50;99.90
52531;DHT22;38441;52.894;6.040;2023-06-24T03:52:42;16.70;99.90
52531;DHT22;38441;52.894;6.040;2023-06-24T03:55:10;16.80;99.90
52531;DHT22;38441;52.894;6.040;2023-06-24T03:57:36;16.90;99.90
52531;DHT22;38441;52.894;6.040;2023-06-24T04:00:03;16.80;99.90
52531;DHT22;38441;52.894;6.040;2023-06-24T04:02:41;15.90;99.90
52531;DHT22;38441;52.894;6.040;2023-06-24T04:05:07;17.20;99.90
52531;DHT22;38441;52.894;6.040;2023-06-24T04:07:33;15.90;99.90
52531;DHT22;38441;52.894;6.040;2023-06-24T04:10:02;17.60;99.90
52531;DHT22;38441;52.894;6.040;2023-06-24T04:12:29;16.70;99.90
52531;DHT22;38441;52.894;6.040;2023-06-24T04:14:54;18.10;99.90
52531;DHT22;38441;52.894;6.040;2023-06-24T04:17:20;15.20;99.90
52531;DHT22;38441;52.894;6.040;2023-06-24T04:19:46;16.10;99.90
52531;DHT22;38441;52.894;6.040;2023-06-24T04:22:11;17.40;99.90
52531;DHT22;38441;52.894;6.040;2023-06-24T04:24:37;17.90;99.90
52531;DHT22;38441;52.894;6.040;2023-06-24T04:27:03;17.00;99.90
52531;DHT22;38441;52.894;6.040;2023-06-24T04:29:28;15.80;99.90
52531;DHT22;38441;52.894;6.040;2023-06-24T04:31:54;17.30;99.90
52531;DHT22;38441;52.894;6.040;2023-06-24T04:34:19;17.80;99.90
52531;DHT22;38441;52.894;6.040;2023-06-24T04:36:45;17.80;99.90
52531;DHT22;38441;52.894;6.040;2023-06-24T04:39:11;17.30;99.90
52531;DHT22;38441;52.894;6.040;2023-06-24T04:41:36;18.40;99.90
52531;DHT22;38441;52.894;6.040;2023-06-24T04:44:02;17.60;99.90
52531;DHT22;38441;52.894;6.040;2023-06-24T04:46:27;16.50;99.90
52531;DHT22;38441;52.894;6.040;2023-06-24T04:48:53;15.00;99.90
52531;DHT22;38441;52.894;6.040;2023-06-24T04:51:19;17.90;99.90
52531;DHT22;38441;52.894;6.040;2023-06-24T04:53:44;17.10;99.90
52531;DHT22;38441;52.894;6.040;2023-06-24T04:56:10;18.30;99.90
52531;DHT22;38441;52.894;6.040;2023-06-24T04:58:35;18.30;99.90
52531;DHT22;38441;52.894;6.040;2023-06-24T05:01:01;17.80;99.90
52531;DHT22;38441;52.894;6.040;2023-06-24T05:03:27;18.20;99.90
52531;DHT22;38441;52.894;6.040;2023-06-24T05:05:52;16.10;99.90
52531;DHT22;38441;52.894;6.040;2023-06-24T05:08:18;17.90;99.90
52531;DHT22;38441;52.894;6.040;2023-06-24T05:10:43;17.90;99.90
52531;DHT22;38441;52.894;6.040;2023-06-24T05:13:09;17.90;99.90
52531;DHT22;38441;52.894;6.040;2023-06-24T05:15:34;18.20;99.90
52531;DHT22;38441;52.894;6.040;2023-06-24T05:18:00;15.70;99.90
52531;DHT22;38441;52.894;6.040;2023-06-24T05:20:26;19.00;99.90
52531;DHT22;38441;52.894;6.040;2023-06-24T05:22:51;18.40;99.90
52531;DHT22;38441;52.894;6.040;2023-06-24T05:25:17;19.20;99.90
52531;DHT22;38441;52.894;6.040;2023-06-24T05:27:42;16.90;99.90
52531;DHT22;38441;52.894;6.040;2023-06-24T05:30:10;16.10;99.90
52531;DHT22;38441;52.894;6.040;2023-06-24T05:32:36;17.00;99.90
52531;DHT22;38441;52.894;6.040;2023-06-24T05:35:01;18.50;99.90
52531;DHT22;38441;52.894;6.040;2023-06-24T05:37:27;20.00;99.90
52531;DHT22;38441;52.894;6.040;2023-06-24T05:39:52;18.30;99.90
52531;DHT22;38441;52.894;6.040;2023-06-24T05:42:18;18.30;99.90
52531;DHT22;38441;52.894;6.040;2023-06-24T05:44:44;18.70;99.90
52531;DHT22;38441;52.894;6.040;2023-06-24T05:47:09;18.60;99.90
52531;DHT22;38441;52.894;6.040;2023-06-24T05:49:35;17.80;99.90
52531;DHT22;38441;52.894;6.040;2023-06-24T05:52:01;19.10;99.90
52531;DHT22;38441;52.894;6.040;2023-06-24T05:54:27;19.70;99.90
52531;DHT22;38441;52.894;6.040;2023-06-24T05:56:53;19.30;99.90
52531;DHT22;38441;52.894;6.040;2023-06-24T05:59:18;19.90;99.90
52531;DHT22;38441;52.894;6.040;2023-06-24T06:01:44;18.90;99.90
52531;DHT22;38441;52.894;6.040;2023-06-24T06:04:09;19.40;99.90
52531;DHT22;38441;52.894;6.040;2023-06-24T06:06:35;20.20;99.90
52531;DHT22;38441;52.894;6.040;2023-06-24T06:09:00;19.60;99.90
52531;DHT22;38441;52.894;6.040;2023-06-24T06:11:26;18.70;99.90
52531;DHT22;38441;52.894;6.040;2023-06-24T06:13:52;18.60;99.90
52531;DHT22;38441;52.894;6.040;2023-06-24T06:16:18;20.10;99.90
52531;DHT22;38441;52.894;6.040;2023-06-24T06:18:43;20.10;99.90
52531;DHT22;38441;52.894;6.040;2023-06-24T06:21:09;20.60;99.90
52531;DHT22;38441;52.894;6.040;2023-06-24T06:23:34;21.00;99.90
52531;DHT22;38441;52.894;6.040;2023-06-24T06:26:00;20.60;99.90
52531;DHT22;38441;52.894;6.040;2023-06-24T06:28:26;22.00;99.90
52531;DHT22;38441;52.894;6.040;2023-06-24T06:30:51;21.00;99.90
52531;DHT22;38441;52.894;6.040;2023-06-24T06:33:17;20.00;99.90
52531;DHT22;38441;52.894;6.040;2023-06-24T06:35:43;21.10;99.90
52531;DHT22;38441;52.894;6.040;2023-06-24T06:38:08;21.90;99.90
52531;DHT22;38441;52.894;6.040;2023-06-24T06:40:34;22.00;99.90
52531;DHT22;38441;52.894;6.040;2023-06-24T06:43:00;20.90;99.90
52531;DHT22;38441;52.894;6.040;2023-06-24T06:45:26;21.30;99.90
52531;DHT22;38441;52.894;6.040;2023-06-24T06:47:51;22.00;99.90
52531;DHT22;38441;52.894;6.040;2023-06-24T06:50:17;21.90;99.90
52531;DHT22;38441;52.894;6.040;2023-06-24T06:52:43;21.60;99.90
52531;DHT22;38441;52.894;6.040;2023-06-24T06:55:09;21.10;99.90
52531;DHT22;38441;52.894;6.040;2023-06-24T06:57:35;21.50;99.90
52531;DHT22;38441;52.894;6.040;2023-06-24T07:00:01;22.00;99.90
52531;DHT22;38441;52.894;6.040;2023-06-24T07:02:26;21.10;99.90
52531;DHT22;38441;52.894;6.040;2023-06-24T07:04:52;22.70;99.90
52531;DHT22;38441;52.894;6.040;2023-06-24T07:07:17;22.60;99.90
52531;DHT22;38441;52.894;6.040;2023-06-24T07:09:43;20.20;99.90
52531;DHT22;38441;52.894;6.040;2023-06-24T07:12:09;23.30;99.90
52531;DHT22;38441;52.894;6.040;2023-06-24T07:14:35;20.80;99.90
52531;DHT22;38441;52.894;6.040;2023-06-24T07:17:00;22.20;99.90
52531;DHT22;38441;52.894;6.040;2023-06-24T07:19:26;23.20;99.90
52531;DHT22;38441;52.894;6.040;2023-06-24T07:21:52;22.10;99.90
52531;DHT22;38441;52.894;6.040;2023-06-24T07:24:17;22.70;99.90
52531;DHT22;38441;52.894;6.040;2023-06-24T07:26:43;22.70;99.90
52531;DHT22;38441;52.894;6.040;2023-06-24T07:29:09;22.80;99.90
52531;DHT22;38441;52.894;6.040;2023-06-24T07:31:35;22.50;99.90
52531;DHT22;38441;52.894;6.040;2023-06-24T07:34:01;22.30;99.90
52531;DHT22;38441;52.894;6.040;2023-06-24T07:36:27;23.20;99.90
52531;DHT22;38441;52.894;6.040;2023-06-24T07:38:52;23.30;99.90
52531;DHT22;38441;52.894;6.040;2023-06-24T07:41:18;23.40;99.90
52531;DHT22;38441;52.894;6.040;2023-06-24T07:43:43;23.00;99.90
52531;DHT22;38441;52.894;6.040;2023-06-24T07:46:09;24.00;99.90
52531;DHT22;38441;52.894;6.040;2023-06-24T07:48:35;23.40;99.90
52531;DHT22;38441;52.894;6.040;2023-06-24T07:51:00;24.50;99.90
52531;DHT22;38441;52.894;6.040;2023-06-24T07:53:26;23.80;99.90
52531;DHT22;38441;52.894;6.040;2023-06-24T07:55:52;23.40;99.90
52531;DHT22;38441;52.894;6.040;2023-06-24T07:58:17;24.80;99.90
52531;DHT22;38441;52.894;6.040;2023-06-24T08:00:45;24.00;99.90
52531;DHT22;38441;52.894;6.040;2023-06-24T08:03:12;23.10;99.90
52531;DHT22;38441;52.894;6.040;2023-06-24T08:05:37;24.50;99.90
52531;DHT22;38441;52.894;6.040;2023-06-24T08:08:05;23.70;99.90
52531;DHT22;38441;52.894;6.040;2023-06-24T08:10:30;22.40;99.90
52531;DHT22;38441;52.894;6.040;2023-06-24T08:12:56;24.30;99.90
52531;DHT22;38441;52.894;6.040;2023-06-24T08:15:22;24.10;99.90
52531;DHT22;38441;52.894;6.040;2023-06-24T08:17:54;24.90;99.90
52531;DHT22;38441;52.894;6.040;2023-06-24T08:20:25;25.10;99.90
52531;DHT22;38441;52.894;6.040;2023-06-24T08:22:50;24.70;99.90
52531;DHT22;38441;52.894;6.040;2023-06-24T08:25:16;24.80;99.90
52531;DHT22;38441;52.894;6.040;2023-06-24T08:27:42;25.60;99.90
52531;DHT22;38441;52.894;6.040;2023-06-24T08:30:13;25.30;99.90
52531;DHT22;38441;52.894;6.040;2023-06-24T08:32:39;25.20;99.90
52531;DHT22;38441;52.894;6.040;2023-06-24T08:35:07;25.80;99.90
52531;DHT22;38441;52.894;6.040;2023-06-24T08:37:44;24.40;99.90
52531;DHT22;38441;52.894;6.040;2023-06-24T08:40:10;22.80;99.90
52531;DHT22;38441;52.894;6.040;2023-06-24T08:42:36;24.20;99.90
52531;DHT22;38441;52.894;6.040;2023-06-24T08:45:02;27.30;99.90
52531;DHT22;38441;52.894;6.040;2023-06-24T08:47:31;24.50;99.90
52531;DHT22;38441;52.894;6.040;2023-06-24T08:50:06;26.10;99.90
52531;DHT22;38441;52.894;6.040;2023-06-24T08:52:36;25.90;99.90
52531;DHT22;38441;52.894;6.040;2023-06-24T08:55:06;26.60;99.90
52531;DHT22;38441;52.894;6.040;2023-06-24T09:00:18;25.10;99.90
52531;DHT22;38441;52.894;6.040;2023-06-24T09:02:49;25.00;99.90
52531;DHT22;38441;52.894;6.040;2023-06-24T09:05:30;22.80;99.90
52531;DHT22;38441;52.894;6.040;2023-06-24T09:07:55;27.40;99.90
52531;DHT22;38441;52.894;6.040;2023-06-24T09:10:32;26.70;99.90
52531;DHT22;38441;52.894;6.040;2023-06-24T09:15:41;25.30;99.90
52531;DHT22;38441;52.894;6.040;2023-06-24T09:18:11;27.20;99.90
52531;DHT22;38441;52.894;6.040;2023-06-24T09:20:41;24.20;99.90
52531;DHT22;38441;52.894;6.040;2023-06-24T09:23:10;28.40;99.90
52531;DHT22;38441;52.894;6.040;2023-06-24T09:25:36;27.40;99.90
52531;DHT22;38441;52.894;6.040;2023-06-24T09:28:07;28.70;99.90
52531;DHT22;38441;52.894;6.040;2023-06-24T09:30:33;24.50;99.90
52531;DHT22;38441;52.894;6.040;2023-06-24T09:32:58;27.60;99.90
52531;DHT22;38441;52.894;6.040;2023-06-24T09:35:25;28.30;99.90
52531;DHT22;38441;52.894;6.040;2023-06-24T09:37:57;29.00;99.90
52531;DHT22;38441;52.894;6.040;2023-06-24T09:40:26;27.80;99.90
52531;DHT22;38441;52.894;6.040;2023-06-24T09:42:58;28.50;99.90
52531;DHT22;38441;52.894;6.040;2023-06-24T09:45:29;27.10;99.90
52531;DHT22;38441;52.894;6.040;2023-06-24T09:47:57;27.20;99.90
52531;DHT22;38441;52.894;6.040;2023-06-24T09:50:23;28.80;99.90
52531;DHT22;38441;52.894;6.040;2023-06-24T09:52:56;29.50;99.90
52531;DHT22;38441;52.894;6.040;2023-06-24T09:55:23;27.10;99.90
52531;DHT22;38441;52.894;6.040;2023-06-24T09:58:08;29.70;99.90
52531;DHT22;38441;52.894;6.040;2023-06-24T10:00:34;28.00;99.90
52531;DHT22;38441;52.894;6.040;2023-06-24T10:03:00;29.90;99.90
52531;DHT22;38441;52.894;6.040;2023-06-24T10:05:26;29.20;99.90
52531;DHT22;38441;52.894;6.040;2023-06-24T10:07:54;29.30;99.90
52531;DHT22;38441;52.894;6.040;2023-06-24T10:10:20;29.30;99.90
52531;DHT22;38441;52.894;6.040;2023-06-24T10:12:45;27.50;99.90
52531;DHT22;38441;52.894;6.040;2023-06-24T10:15:11;29.50;99.90
52531;DHT22;38441;52.894;6.040;2023-06-24T10:17:37;29.20;99.90
52531;DHT22;38441;52.894;6.040;2023-06-24T10:20:04;29.70;99.90
52531;DHT22;38441;52.894;6.040;2023-06-24T10:22:31;27.60;99.90
52531;DHT22;38441;52.894;6.040;2023-06-24T10:25:17;29.60;99.90
52531;DHT22;38441;52.894;6.040;2023-06-24T10:30:24;27.60;99.90
52531;DHT22;38441;52.894;6.040;2023-06-24T10:32:57;29.60;99.90
52531;DHT22;38441;52.894;6.040;2023-06-24T10:37:59;28.10;99.90
52531;DHT22;38441;52.894;6.040;2023-06-24T10:40:43;28.60;99.90
52531;DHT22;38441;52.894;6.040;2023-06-24T10:50:55;29.10;99.70
52531;DHT22;38441;52.894;6.040;2023-06-24T10:56:20;28.60;99.20
52531;DHT22;38441;52.894;6.040;2023-06-24T10:58:55;29.80;99.90
52531;DHT22;38441;52.894;6.040;2023-06-24T11:01:24;28.90;99.90
52531;DHT22;38441;52.894;6.040;2023-06-24T11:06:35;28.40;97.70
52531;DHT22;38441;52.894;6.040;2023-06-24T11:09:02;30.00;99.90
52531;DHT22;38441;52.894;6.040;2023-06-24T11:11:29;29.30;99.30
52531;DHT22;38441;52.894;6.040;2023-06-24T11:16:45;28.80;97.00
52531;DHT22;38441;52.894;6.040;2023-06-24T11:24:21;28.90;96.20
52531;DHT22;38441;52.894;6.040;2023-06-24T11:26:47;29.20;98.10
52531;DHT22;38441;52.894;6.040;2023-06-24T11:29:13;30.80;99.30
52531;DHT22;38441;52.894;6.040;2023-06-24T11:31:38;30.80;98.40
52531;DHT22;38441;52.894;6.040;2023-06-24T11:34:04;30.10;99.20
52531;DHT22;38441;52.894;6.040;2023-06-24T11:41:41;29.00;95.50
52531;DHT22;38441;52.894;6.040;2023-06-24T11:44:06;28.90;97.20
52531;DHT22;38441;52.894;6.040;2023-06-24T11:46:32;31.10;97.80
52531;DHT22;38441;52.894;6.040;2023-06-24T11:49:09;31.40;97.10
52531;DHT22;38441;52.894;6.040;2023-06-24T11:51:36;31.70;98.00
52531;DHT22;38441;52.894;6.040;2023-06-24T11:54:04;30.80;97.70
52531;DHT22;38441;52.894;6.040;2023-06-24T11:56:39;29.40;95.90
52531;DHT22;38441;52.894;6.040;2023-06-24T12:06:22;31.10;94.90
52531;DHT22;38441;52.894;6.040;2023-06-24T12:09:12;31.30;95.90
52531;DHT22;38441;52.894;6.040;2023-06-24T12:11:39;29.60;96.60
52531;DHT22;38441;52.894;6.040;2023-06-24T12:25:25;30.30;94.50
52531;DHT22;38441;52.894;6.040;2023-06-24T12:28:11;31.20;93.40
52531;DHT22;38441;52.894;6.040;2023-06-24T12:30:45;30.20;93.10
52531;DHT22;38441;52.894;6.040;2023-06-24T12:33:13;31.50;97.70
52531;DHT22;38441;52.894;6.040;2023-06-24T12:35:52;29.20;96.80
52531;DHT22;38441;52.894;6.040;2023-06-24T12:38:57;31.70;94.90
52531;DHT22;38441;52.894;6.040;2023-06-24T12:42:02;30.70;93.80
52531;DHT22;38441;52.894;6.040;2023-06-24T12:47:14;29.90;92.70
52531;DHT22;38441;52.894;6.040;2023-06-24T12:49:48;31.60;96.70
52531;DHT22;38441;52.894;6.040;2023-06-24T12:52:14;30.00;93.50
52531;DHT22;38441;52.894;6.040;2023-06-24T12:54:40;31.90;97.00
52531;DHT22;38441;52.894;6.040;2023-06-24T12:57:06;32.80;96.40
52531;DHT22;38441;52.894;6.040;2023-06-24T12:59:31;30.50;94.90
52531;DHT22;38441;52.894;6.040;2023-06-24T13:01:57;30.90;94.60
52531;DHT22;38441;52.894;6.040;2023-06-24T13:14:47;30.20;91.80
52531;DHT22;38441;52.894;6.040;2023-06-24T13:17:12;30.20;94.40
52531;DHT22;38441;52.894;6.040;2023-06-24T13:19:41;28.40;94.80
52531;DHT22;38441;52.894;6.040;2023-06-24T13:25:14;32.00;94.80
52531;DHT22;38441;52.894;6.040;2023-06-24T13:27:40;29.10;91.90
52531;DHT22;38441;52.894;6.040;2023-06-24T13:30:09;31.60;96.50
52531;DHT22;38441;52.894;6.040;2023-06-24T13:39:31;30.50;96.00
52531;DHT22;38441;52.894;6.040;2023-06-24T13:42:20;31.30;95.10
52531;DHT22;38441;52.894;6.040;2023-06-24T13:44:46;31.10;95.10
52531;DHT22;38441;52.894;6.040;2023-06-24T13:47:37;28.80;95.90
52531;DHT22;38441;52.894;6.040;2023-06-24T13:50:05;31.00;95.20
52531;DHT22;38441;52.894;6.040;2023-06-24T13:52:31;30.00;96.10
52531;DHT22;38441;52.894;6.040;2023-06-24T13:54:57;31.30;96.90
52531;DHT22;38441;52.894;6.040;2023-06-24T13:57:22;31.20;96.40
52531;DHT22;38441;52.894;6.040;2023-06-24T13:59:48;30.60;97.30
52531;DHT22;38441;52.894;6.040;2023-06-24T14:02:16;31.10;98.50
52531;DHT22;38441;52.894;6.040;2023-06-24T14:04:55;31.60;97.70
52531;DHT22;38441;52.894;6.040;2023-06-24T14:07:20;30.50;95.40
52531;DHT22;38441;52.894;6.040;2023-06-24T14:09:49;29.90;97.60
52531;DHT22;38441;52.894;6.040;2023-06-24T14:12:15;28.80;98.00
52531;DHT22;38441;52.894;6.040;2023-06-24T14:14:41;29.50;96.80
52531;DHT22;38441;52.894;6.040;2023-06-24T14:17:14;28.80;97.50
52531;DHT22;38441;52.894;6.040;2023-06-24T14:19:42;29.90;98.00
52531;DHT22;38441;52.894;6.040;2023-06-24T14:22:08;30.20;97.30
52531;DHT22;38441;52.894;6.040;2023-06-24T14:24:34;29.60;97.90
52531;DHT22;38441;52.894;6.040;2023-06-24T14:27:04;31.20;97.30
52531;DHT22;38441;52.894;6.040;2023-06-24T14:29:30;28.20;96.60
52531;DHT22;38441;52.894;6.040;2023-06-24T14:31:56;30.00;98.30
52531;DHT22;38441;52.894;6.040;2023-06-24T14:34:21;29.90;99.10
52531;DHT22;38441;52.894;6.040;2023-06-24T14:36:47;29.70;99.00
52531;DHT22;38441;52.894;6.040;2023-06-24T14:39:16;30.30;99.90
52531;DHT22;38441;52.894;6.040;2023-06-24T14:41:50;30.50;97.70
52531;DHT22;38441;52.894;6.040;2023-06-24T14:44:18;28.80;95.40
52531;DHT22;38441;52.894;6.040;2023-06-24T14:46:46;31.20;99.50
52531;DHT22;38441;52.894;6.040;2023-06-24T14:49:14;30.10;96.70
52531;DHT22;38441;52.894;6.040;2023-06-24T14:51:45;31.60;96.70
52531;DHT22;38441;52.894;6.040;2023-06-24T14:54:10;30.20;98.80
52531;DHT22;38441;52.894;6.040;2023-06-24T14:56:38;32.10;97.50
52531;DHT22;38441;52.894;6.040;2023-06-24T14:59:20;29.30;95.00
52531;DHT22;38441;52.894;6.040;2023-06-24T15:02:08;30.70;95.90
52531;DHT22;38441;52.894;6.040;2023-06-24T15:04:35;29.70;94.00
52531;DHT22;38441;52.894;6.040;2023-06-24T15:07:02;30.50;97.40
52531;DHT22;38441;52.894;6.040;2023-06-24T15:09:27;27.90;97.80
52531;DHT22;38441;52.894;6.040;2023-06-24T15:11:53;30.30;99.50
52531;DHT22;38441;52.894;6.040;2023-06-24T15:14:22;29.60;96.90
52531;DHT22;38441;52.894;6.040;2023-06-24T15:16:50;31.00;99.30
52531;DHT22;38441;52.894;6.040;2023-06-24T15:19:39;31.00;98.60
52531;DHT22;38441;52.894;6.040;2023-06-24T15:22:38;29.10;97.80
52531;DHT22;38441;52.894;6.040;2023-06-24T15:25:22;28.60;95.60
52531;DHT22;38441;52.894;6.040;2023-06-24T15:27:56;30.80;97.10
52531;DHT22;38441;52.894;6.040;2023-06-24T15:30:25;30.10;95.80
52531;DHT22;38441;52.894;6.040;2023-06-24T15:32:58;28.00;96.20
52531;DHT22;38441;52.894;6.040;2023-06-24T15:35:27;30.10;96.60
52531;DHT22;38441;52.894;6.040;2023-06-24T15:37:53;30.10;97.00
52531;DHT22;38441;52.894;6.040;2023-06-24T15:40:18;29.90;98.00
52531;DHT22;38441;52.894;6.040;2023-06-24T15:42:44;28.00;96.60
52531;DHT22;38441;52.894;6.040;2023-06-24T15:45:10;29.70;97.80
52531;DHT22;38441;52.894;6.040;2023-06-24T15:47:35;29.80;97.50
52531;DHT22;38441;52.894;6.040;2023-06-24T15:50:03;30.80;98.60
52531;DHT22;38441;52.894;6.040;2023-06-24T15:52:29;26.40;95.90
52531;DHT22;38441;52.894;6.040;2023-06-24T15:54:55;29.70;98.40
52531;DHT22;38441;52.894;6.040;2023-06-24T15:57:21;29.30;96.70
52531;DHT22;38441;52.894;6.040;2023-06-24T15:59:46;30.70;98.40
52531;DHT22;38441;52.894;6.040;2023-06-24T16:02:12;28.40;96.90
52531;DHT22;38441;52.894;6.040;2023-06-24T16:04:37;29.60;97.40
52531;DHT22;38441;52.894;6.040;2023-06-24T16:07:03;30.40;97.90
52531;DHT22;38441;52.894;6.040;2023-06-24T16:09:30;27.60;96.40
52531;DHT22;38441;52.894;6.040;2023-06-24T16:11:55;29.40;98.50
52531;DHT22;38441;52.894;6.040;2023-06-24T16:14:21;30.30;97.60
52531;DHT22;38441;52.894;6.040;2023-06-24T16:16:49;30.40;99.30
52531;DHT22;38441;52.894;6.040;2023-06-24T16:19:17;29.40;96.60
52531;DHT22;38441;52.894;6.040;2023-06-24T16:29:28;27.60;94.00
52531;DHT22;38441;52.894;6.040;2023-06-24T16:31:54;29.10;97.90
52531;DHT22;38441;52.894;6.040;2023-06-24T16:34:20;29.20;96.70
52531;DHT22;38441;52.894;6.040;2023-06-24T16:36:45;29.20;96.10
52531;DHT22;38441;52.894;6.040;2023-06-24T16:39:11;28.90;96.00
52531;DHT22;38441;52.894;6.040;2023-06-24T16:41:36;29.20;96.20
52531;DHT22;38441;52.894;6.040;2023-06-24T16:44:02;27.70;95.50
52531;DHT22;38441;52.894;6.040;2023-06-24T16:46:28;27.30;96.70
52531;DHT22;38441;52.894;6.040;2023-06-24T16:48:53;29.40;97.10
52531;DHT22;38441;52.894;6.040;2023-06-24T16:51:19;29.30;97.40
52531;DHT22;38441;52.894;6.040;2023-06-24T16:53:47;29.00;96.20
52531;DHT22;38441;52.894;6.040;2023-06-24T16:56:13;27.20;96.20
52531;DHT22;38441;52.894;6.040;2023-06-24T16:58:38;28.90;97.00
52531;DHT22;38441;52.894;6.040;2023-06-24T17:01:04;29.30;96.80
52531;DHT22;38441;52.894;6.040;2023-06-24T17:03:29;29.70;97.30
52531;DHT22;38441;52.894;6.040;2023-06-24T17:05:55;26.90;96.50
52531;DHT22;38441;52.894;6.040;2023-06-24T17:08:21;28.90;96.90